sensor_id;sensor_type;location;lat;lon;timestamp;P1;durP1;ratioP1;P2;durP2;ratioP2
27269;SDS011;14769;56.934;24.176;2022-07-23T00:00:01;7.95;;;7.18;;
27269;SDS011;14769;56.934;24.176;2022-07-23T00:01:04;8.25;;;7.40;;
27269;SDS011;14769;56.934;24.176;2022-07-23T00:02:06;11.32;;;7.50;;
27269;SDS011;14769;56.934;24.176;2022-07-23T00:03:08;10.18;;;7.90;;
27269;SDS011;14769;56.934;24.176;2022-07-23T00:04:09;11.18;;;7.60;;
27269;SDS011;14769;56.934;24.176;2022-07-23T00:05:11;9.80;;;7.53;;
27269;SDS011;14769;56.934;24.176;2022-07-23T00:06:13;9.98;;;7.47;;
27269;SDS011;14769;56.934;24.176;2022-07-23T00:07:16;10.05;;;7.22;;
27269;SDS011;14769;56.934;24.176;2022-07-23T00:08:18;8.52;;;6.93;;
27269;SDS011;14769;56.934;24.176;2022-07-23T00:09:19;8.80;;;7.30;;
27269;SDS011;14769;56.934;24.176;2022-07-23T00:10:21;8.13;;;7.10;;
27269;SDS011;14769;56.934;24.176;2022-07-23T00:11:23;9.40;;;7.53;;
27269;SDS011;14769;56.934;24.176;2022-07-23T00:12:25;9.57;;;7.03;;
27269;SDS011;14769;56.934;24.176;2022-07-23T00:13:27;7.88;;;7.05;;
27269;SDS011;14769;56.934;24.176;2022-07-23T00:14:28;7.53;;;6.80;;
27269;SDS011;14769;56.934;24.176;2022-07-23T00:15:30;9.32;;;6.93;;
27269;SDS011;14769;56.934;24.176;2022-07-23T00:16:32;8.98;;;7.07;;
27269;SDS011;14769;56.934;24.176;2022-07-23T00:17:34;8.80;;;7.22;;
27269;SDS011;14769;56.934;24.176;2022-07-23T00:18:36;8.75;;;7.63;;
27269;SDS011;14769;56.934;24.176;2022-07-23T00:19:38;10.50;;;7.47;;
27269;SDS011;14769;56.934;24.176;2022-07-23T00:20:40;8.75;;;7.80;;
27269;SDS011;14769;56.934;24.176;2022-07-23T00:21:41;9.38;;;7.75;;
27269;SDS011;14769;56.934;24.176;2022-07-23T00:22:50;8.77;;;7.78;;
27269;SDS011;14769;56.934;24.176;2022-07-23T00:23:55;10.57;;;8.20;;
27269;SDS011;14769;56.934;24.176;2022-07-23T00:24:57;9.07;;;8.10;;
27269;SDS011;14769;56.934;24.176;2022-07-23T00:26:19;9.40;;;7.70;;
27269;SDS011;14769;56.934;24.176;2022-07-23T00:27:21;9.98;;;8.18;;
27269;SDS011;14769;56.934;24.176;2022-07-23T00:28:24;8.88;;;7.70;;
27269;SDS011;14769;56.934;24.176;2022-07-23T00:29:25;9.32;;;8.13;;
27269;SDS011;14769;56.934;24.176;2022-07-23T00:30:27;11.20;;;7.45;;
27269;SDS011;14769;56.934;24.176;2022-07-23T00:31:33;8.90;;;7.97;;
27269;SDS011;14769;56.934;24.176;2022-07-23T00:32:44;9.75;;;7.82;;
27269;SDS011;14769;56.934;24.176;2022-07-23T00:33:58;8.55;;;7.43;;
27269;SDS011;14769;56.934;24.176;2022-07-23T00:35:02;10.23;;;8.30;;
27269;SDS011;14769;56.934;24.176;2022-07-23T00:36:04;9.13;;;8.23;;
27269;SDS011;14769;56.934;24.176;2022-07-23T00:37:06;13.23;;;8.48;;
27269;SDS011;14769;56.934;24.176;2022-07-23T00:38:09;9.35;;;8.05;;
27269;SDS011;14769;56.934;24.176;2022-07-23T00:39:11;8.95;;;8.05;;
27269;SDS011;14769;56.934;24.176;2022-07-23T00:40:13;11.48;;;8.52;;
27269;SDS011;14769;56.934;24.176;2022-07-23T00:41:15;9.35;;;8.40;;
27269;SDS011;14769;56.934;24.176;2022-07-23T00:42:17;9.38;;;8.38;;
27269;SDS011;14769;56.934;24.176;2022-07-23T00:43:21;9.30;;;8.38;;
27269;SDS011;14769;56.934;24.176;2022-07-23T00:44:25;9.68;;;8.07;;
27269;SDS011;14769;56.934;24.176;2022-07-23T00:45:29;9.13;;;8.23;;
27269;SDS011;14769;56.934;24.176;2022-07-23T00:46:31;8.90;;;7.72;;
27269;SDS011;14769;56.934;24.176;2022-07-23T00:47:33;8.70;;;7.82;;
27269;SDS011;14769;56.934;24.176;2022-07-23T00:48:35;10.50;;;8.45;;
27269;SDS011;14769;56.934;24.176;2022-07-23T00:49:37;8.27;;;7.10;;
27269;SDS011;14769;56.934;24.176;2022-07-23T00:50:39;12.43;;;8.45;;
27269;SDS011;14769;56.934;24.176;2022-07-23T00:51:41;9.52;;;8.63;;
27269;SDS011;14769;56.934;24.176;2022-07-23T00:52:43;10.65;;;8.38;;
27269;SDS011;14769;56.934;24.176;2022-07-23T00:53:45;8.80;;;7.63;;
27269;SDS011;14769;56.934;24.176;2022-07-23T00:54:47;12.55;;;8.40;;
27269;SDS011;14769;56.934;24.176;2022-07-23T00:55:49;11.45;;;8.27;;
27269;SDS011;14769;56.934;24.176;2022-07-23T00:56:52;8.73;;;7.57;;
27269;SDS011;14769;56.934;24.176;2022-07-23T00:57:54;9.85;;;7.93;;
27269;SDS011;14769;56.934;24.176;2022-07-23T00:58:57;8.90;;;7.63;;
27269;SDS011;14769;56.934;24.176;2022-07-23T01:00:01;9.10;;;8.20;;
27269;SDS011;14769;56.934;24.176;2022-07-23T01:01:04;9.40;;;7.88;;
27269;SDS011;14769;56.934;24.176;2022-07-23T01:02:06;9.20;;;7.95;;
27269;SDS011;14769;56.934;24.176;2022-07-23T01:03:08;9.10;;;8.20;;
27269;SDS011;14769;56.934;24.176;2022-07-23T01:04:10;10.88;;;8.30;;
27269;SDS011;14769;56.934;24.176;2022-07-23T01:05:12;11.38;;;8.57;;
27269;SDS011;14769;56.934;24.176;2022-07-23T01:06:14;12.77;;;8.98;;
27269;SDS011;14769;56.934;24.176;2022-07-23T01:07:16;9.60;;;8.55;;
27269;SDS011;14769;56.934;24.176;2022-07-23T01:08:18;8.93;;;8.10;;
27269;SDS011;14769;56.934;24.176;2022-07-23T01:09:22;9.57;;;8.52;;
27269;SDS011;14769;56.934;24.176;2022-07-23T01:10:24;9.10;;;8.02;;
27269;SDS011;14769;56.934;24.176;2022-07-23T01:11:33;12.02;;;8.15;;
27269;SDS011;14769;56.934;24.176;2022-07-23T01:12:36;9.43;;;8.48;;
27269;SDS011;14769;56.934;24.176;2022-07-23T01:13:44;11.23;;;8.65;;
27269;SDS011;14769;56.934;24.176;2022-07-23T01:14:56;9.50;;;8.60;;
27269;SDS011;14769;56.934;24.176;2022-07-23T01:15:59;9.68;;;8.70;;
27269;SDS011;14769;56.934;24.176;2022-07-23T01:17:01;10.00;;;8.65;;
27269;SDS011;14769;56.934;24.176;2022-07-23T01:18:04;12.65;;;8.80;;
27269;SDS011;14769;56.934;24.176;2022-07-23T01:19:07;10.98;;;9.02;;
27269;SDS011;14769;56.934;24.176;2022-07-23T01:20:10;9.55;;;8.70;;
27269;SDS011;14769;56.934;24.176;2022-07-23T01:21:12;11.35;;;8.65;;
27269;SDS011;14769;56.934;24.176;2022-07-23T01:22:14;13.13;;;9.43;;
27269;SDS011;14769;56.934;24.176;2022-07-23T01:23:18;10.55;;;9.30;;
27269;SDS011;14769;56.934;24.176;2022-07-23T01:24:19;11.07;;;10.00;;
27269;SDS011;14769;56.934;24.176;2022-07-23T01:25:21;11.52;;;9.85;;
27269;SDS011;14769;56.934;24.176;2022-07-23T01:26:24;13.93;;;10.07;;
27269;SDS011;14769;56.934;24.176;2022-07-23T01:27:26;11.13;;;9.80;;
27269;SDS011;14769;56.934;24.176;2022-07-23T01:28:27;11.18;;;10.00;;
27269;SDS011;14769;56.934;24.176;2022-07-23T01:29:29;12.18;;;9.77;;
27269;SDS011;14769;56.934;24.176;2022-07-23T01:30:31;11.00;;;9.80;;
27269;SDS011;14769;56.934;24.176;2022-07-23T01:32:43;13.80;;;10.00;;
27269;SDS011;14769;56.934;24.176;2022-07-23T01:33:45;11.38;;;10.15;;
27269;SDS011;14769;56.934;24.176;2022-07-23T01:34:47;12.37;;;9.70;;
27269;SDS011;14769;56.934;24.176;2022-07-23T01:35:49;10.85;;;9.65;;
27269;SDS011;14769;56.934;24.176;2022-07-23T01:36:50;16.50;;;9.75;;
27269;SDS011;14769;56.934;24.176;2022-07-23T01:37:52;10.50;;;9.38;;
27269;SDS011;14769;56.934;24.176;2022-07-23T01:38:54;10.63;;;9.45;;
27269;SDS011;14769;56.934;24.176;2022-07-23T01:39:56;12.13;;;9.77;;
27269;SDS011;14769;56.934;24.176;2022-07-23T01:40:58;11.30;;;10.10;;
27269;SDS011;14769;56.934;24.176;2022-07-23T01:42:01;13.80;;;10.60;;
27269;SDS011;14769;56.934;24.176;2022-07-23T01:43:02;12.85;;;9.60;;
27269;SDS011;14769;56.934;24.176;2022-07-23T01:44:05;13.90;;;10.27;;
27269;SDS011;14769;56.934;24.176;2022-07-23T01:45:07;13.07;;;9.77;;
27269;SDS011;14769;56.934;24.176;2022-07-23T01:46:09;11.23;;;9.90;;
27269;SDS011;14769;56.934;24.176;2022-07-23T01:47:11;12.65;;;10.43;;
27269;SDS011;14769;56.934;24.176;2022-07-23T01:48:13;13.15;;;10.13;;
27269;SDS011;14769;56.934;24.176;2022-07-23T01:49:15;16.85;;;9.75;;
27269;SDS011;14769;56.934;24.176;2022-07-23T01:50:17;14.02;;;10.50;;
27269;SDS011;14769;56.934;24.176;2022-07-23T01:51:18;14.05;;;10.02;;
27269;SDS011;14769;56.934;24.176;2022-07-23T01:52:20;11.15;;;9.95;;
27269;SDS011;14769;56.934;24.176;2022-07-23T01:53:22;12.48;;;9.77;;
27269;SDS011;14769;56.934;24.176;2022-07-23T01:54:24;12.63;;;9.65;;
27269;SDS011;14769;56.934;24.176;2022-07-23T01:55:26;13.68;;;9.38;;
27269;SDS011;14769;56.934;24.176;2022-07-23T01:56:28;11.73;;;10.30;;
27269;SDS011;14769;56.934;24.176;2022-07-23T01:57:30;11.75;;;9.98;;
27269;SDS011;14769;56.934;24.176;2022-07-23T01:58:32;11.27;;;10.07;;
27269;SDS011;14769;56.934;24.176;2022-07-23T01:59:35;13.07;;;10.00;;
27269;SDS011;14769;56.934;24.176;2022-07-23T02:00:37;15.00;;;9.73;;
27269;SDS011;14769;56.934;24.176;2022-07-23T02:01:39;10.48;;;9.43;;
27269;SDS011;14769;56.934;24.176;2022-07-23T02:02:41;14.18;;;10.05;;
27269;SDS011;14769;56.934;24.176;2022-07-23T02:03:43;14.32;;;10.45;;
27269;SDS011;14769;56.934;24.176;2022-07-23T02:04:45;11.23;;;10.02;;
27269;SDS011;14769;56.934;24.176;2022-07-23T02:05:47;14.65;;;11.10;;
27269;SDS011;14769;56.934;24.176;2022-07-23T02:06:49;15.32;;;10.32;;
27269;SDS011;14769;56.934;24.176;2022-07-23T02:07:51;17.33;;;10.30;;
27269;SDS011;14769;56.934;24.176;2022-07-23T02:08:53;13.75;;;10.98;;
27269;SDS011;14769;56.934;24.176;2022-07-23T02:09:55;12.13;;;10.52;;
27269;SDS011;14769;56.934;24.176;2022-07-23T02:10:57;12.82;;;10.15;;
27269;SDS011;14769;56.934;24.176;2022-07-23T02:11:59;13.60;;;11.07;;
27269;SDS011;14769;56.934;24.176;2022-07-23T02:13:01;16.40;;;10.63;;
27269;SDS011;14769;56.934;24.176;2022-07-23T02:14:02;14.30;;;10.27;;
27269;SDS011;14769;56.934;24.176;2022-07-23T02:15:05;15.40;;;10.88;;
27269;SDS011;14769;56.934;24.176;2022-07-23T02:16:10;13.02;;;10.93;;
27269;SDS011;14769;56.934;24.176;2022-07-23T02:17:12;16.70;;;10.70;;
27269;SDS011;14769;56.934;24.176;2022-07-23T02:18:13;14.85;;;10.55;;
27269;SDS011;14769;56.934;24.176;2022-07-23T02:19:15;12.13;;;10.40;;
27269;SDS011;14769;56.934;24.176;2022-07-23T02:20:18;12.95;;;10.43;;
27269;SDS011;14769;56.934;24.176;2022-07-23T02:21:19;11.20;;;9.98;;
27269;SDS011;14769;56.934;24.176;2022-07-23T02:22:22;13.75;;;10.30;;
27269;SDS011;14769;56.934;24.176;2022-07-23T02:23:23;16.65;;;10.45;;
27269;SDS011;14769;56.934;24.176;2022-07-23T02:24:25;15.95;;;10.38;;
27269;SDS011;14769;56.934;24.176;2022-07-23T02:25:27;14.77;;;10.27;;
27269;SDS011;14769;56.934;24.176;2022-07-23T02:26:29;15.48;;;10.63;;
27269;SDS011;14769;56.934;24.176;2022-07-23T02:27:34;13.73;;;10.73;;
27269;SDS011;14769;56.934;24.176;2022-07-23T02:28:37;12.15;;;10.20;;
27269;SDS011;14769;56.934;24.176;2022-07-23T02:29:38;12.60;;;10.85;;
27269;SDS011;14769;56.934;24.176;2022-07-23T02:30:40;14.75;;;10.63;;
27269;SDS011;14769;56.934;24.176;2022-07-23T02:31:42;16.80;;;9.68;;
27269;SDS011;14769;56.934;24.176;2022-07-23T02:32:45;11.95;;;10.70;;
27269;SDS011;14769;56.934;24.176;2022-07-23T02:33:47;13.57;;;10.45;;
27269;SDS011;14769;56.934;24.176;2022-07-23T02:34:50;13.80;;;10.93;;
27269;SDS011;14769;56.934;24.176;2022-07-23T02:35:52;11.90;;;10.68;;
27269;SDS011;14769;56.934;24.176;2022-07-23T02:36:54;12.23;;;9.80;;
27269;SDS011;14769;56.934;24.176;2022-07-23T02:37:55;12.32;;;10.27;;
27269;SDS011;14769;56.934;24.176;2022-07-23T02:38:57;13.98;;;10.70;;
27269;SDS011;14769;56.934;24.176;2022-07-23T02:40:00;12.05;;;10.32;;
27269;SDS011;14769;56.934;24.176;2022-07-23T02:41:02;14.43;;;10.07;;
27269;SDS011;14769;56.934;24.176;2022-07-23T02:42:03;13.20;;;9.60;;
27269;SDS011;14769;56.934;24.176;2022-07-23T02:43:05;13.30;;;10.25;;
27269;SDS011;14769;56.934;24.176;2022-07-23T02:44:07;14.07;;;9.45;;
27269;SDS011;14769;56.934;24.176;2022-07-23T02:45:09;18.20;;;11.02;;
27269;SDS011;14769;56.934;24.176;2022-07-23T02:46:11;11.90;;;9.88;;
27269;SDS011;14769;56.934;24.176;2022-07-23T02:47:13;10.48;;;9.48;;
27269;SDS011;14769;56.934;24.176;2022-07-23T02:48:15;15.63;;;10.70;;
27269;SDS011;14769;56.934;24.176;2022-07-23T02:49:17;13.00;;;9.70;;
27269;SDS011;14769;56.934;24.176;2022-07-23T02:50:19;17.33;;;9.80;;
27269;SDS011;14769;56.934;24.176;2022-07-23T02:51:22;13.02;;;9.55;;
27269;SDS011;14769;56.934;24.176;2022-07-23T02:52:23;11.95;;;10.20;;
27269;SDS011;14769;56.934;24.176;2022-07-23T02:53:25;16.02;;;9.40;;
27269;SDS011;14769;56.934;24.176;2022-07-23T02:54:27;14.02;;;9.35;;
27269;SDS011;14769;56.934;24.176;2022-07-23T02:55:29;11.75;;;9.30;;
27269;SDS011;14769;56.934;24.176;2022-07-23T02:56:31;10.90;;;8.98;;
27269;SDS011;14769;56.934;24.176;2022-07-23T02:57:33;11.73;;;8.73;;
27269;SDS011;14769;56.934;24.176;2022-07-23T02:58:35;9.27;;;8.38;;
27269;SDS011;14769;56.934;24.176;2022-07-23T02:59:37;12.57;;;8.98;;
27269;SDS011;14769;56.934;24.176;2022-07-23T03:00:39;11.63;;;9.00;;
27269;SDS011;14769;56.934;24.176;2022-07-23T03:01:43;10.52;;;8.40;;
27269;SDS011;14769;56.934;24.176;2022-07-23T03:02:45;10.98;;;7.97;;
27269;SDS011;14769;56.934;24.176;2022-07-23T03:03:47;10.85;;;8.50;;
27269;SDS011;14769;56.934;24.176;2022-07-23T03:04:49;10.80;;;8.15;;
27269;SDS011;14769;56.934;24.176;2022-07-23T03:05:52;14.30;;;8.52;;
27269;SDS011;14769;56.934;24.176;2022-07-23T03:06:54;9.32;;;8.18;;
27269;SDS011;14769;56.934;24.176;2022-07-23T03:07:55;10.27;;;7.85;;
27269;SDS011;14769;56.934;24.176;2022-07-23T03:08:57;9.05;;;8.02;;
27269;SDS011;14769;56.934;24.176;2022-07-23T03:09:59;9.95;;;7.82;;
27269;SDS011;14769;56.934;24.176;2022-07-23T03:11:01;11.45;;;8.75;;
27269;SDS011;14769;56.934;24.176;2022-07-23T03:12:03;11.07;;;8.45;;
27269;SDS011;14769;56.934;24.176;2022-07-23T03:13:11;9.25;;;8.25;;
27269;SDS011;14769;56.934;24.176;2022-07-23T03:14:13;8.63;;;7.80;;
27269;SDS011;14769;56.934;24.176;2022-07-23T03:15:17;9.63;;;8.23;;
27269;SDS011;14769;56.934;24.176;2022-07-23T03:16:19;8.35;;;7.47;;
27269;SDS011;14769;56.934;24.176;2022-07-23T03:17:21;9.23;;;7.80;;
27269;SDS011;14769;56.934;24.176;2022-07-23T03:18:23;10.30;;;7.47;;
27269;SDS011;14769;56.934;24.176;2022-07-23T03:19:25;11.27;;;8.25;;
27269;SDS011;14769;56.934;24.176;2022-07-23T03:20:27;12.60;;;7.25;;
27269;SDS011;14769;56.934;24.176;2022-07-23T03:21:29;11.52;;;7.05;;
27269;SDS011;14769;56.934;24.176;2022-07-23T03:22:31;9.02;;;7.68;;
27269;SDS011;14769;56.934;24.176;2022-07-23T03:23:33;12.70;;;7.57;;
27269;SDS011;14769;56.934;24.176;2022-07-23T03:24:35;8.40;;;7.55;;
27269;SDS011;14769;56.934;24.176;2022-07-23T03:25:56;9.43;;;7.65;;
27269;SDS011;14769;56.934;24.176;2022-07-23T03:26:57;11.32;;;7.88;;
27269;SDS011;14769;56.934;24.176;2022-07-23T03:27:59;9.75;;;7.88;;
27269;SDS011;14769;56.934;24.176;2022-07-23T03:29:01;12.10;;;7.80;;
27269;SDS011;14769;56.934;24.176;2022-07-23T03:30:05;11.30;;;8.10;;
27269;SDS011;14769;56.934;24.176;2022-07-23T03:31:08;13.07;;;8.38;;
27269;SDS011;14769;56.934;24.176;2022-07-23T03:32:10;9.10;;;8.20;;
27269;SDS011;14769;56.934;24.176;2022-07-23T03:33:12;10.27;;;8.38;;
27269;SDS011;14769;56.934;24.176;2022-07-23T03:34:15;11.13;;;8.70;;
27269;SDS011;14769;56.934;24.176;2022-07-23T03:35:19;10.63;;;8.23;;
27269;SDS011;14769;56.934;24.176;2022-07-23T03:36:21;8.80;;;7.90;;
27269;SDS011;14769;56.934;24.176;2022-07-23T03:37:23;11.73;;;8.38;;
27269;SDS011;14769;56.934;24.176;2022-07-23T03:38:26;9.73;;;8.27;;
27269;SDS011;14769;56.934;24.176;2022-07-23T03:39:27;12.75;;;8.25;;
27269;SDS011;14769;56.934;24.176;2022-07-23T03:40:29;9.63;;;8.38;;
27269;SDS011;14769;56.934;24.176;2022-07-23T03:41:32;9.45;;;8.55;;
27269;SDS011;14769;56.934;24.176;2022-07-23T03:42:34;11.25;;;9.25;;
27269;SDS011;14769;56.934;24.176;2022-07-23T03:43:35;13.18;;;8.77;;
27269;SDS011;14769;56.934;24.176;2022-07-23T03:44:37;11.60;;;9.15;;
27269;SDS011;14769;56.934;24.176;2022-07-23T03:45:40;11.80;;;8.98;;
27269;SDS011;14769;56.934;24.176;2022-07-23T03:46:42;12.23;;;8.93;;
27269;SDS011;14769;56.934;24.176;2022-07-23T03:47:43;12.07;;;9.15;;
27269;SDS011;14769;56.934;24.176;2022-07-23T03:48:45;10.50;;;9.25;;
27269;SDS011;14769;56.934;24.176;2022-07-23T03:49:48;9.93;;;8.93;;
27269;SDS011;14769;56.934;24.176;2022-07-23T03:50:50;12.18;;;10.10;;
27269;SDS011;14769;56.934;24.176;2022-07-23T03:51:52;11.52;;;9.43;;
27269;SDS011;14769;56.934;24.176;2022-07-23T03:52:54;11.05;;;8.68;;
27269;SDS011;14769;56.934;24.176;2022-07-23T03:53:56;12.95;;;9.45;;
27269;SDS011;14769;56.934;24.176;2022-07-23T03:54:58;13.30;;;8.70;;
27269;SDS011;14769;56.934;24.176;2022-07-23T03:55:59;10.82;;;8.98;;
27269;SDS011;14769;56.934;24.176;2022-07-23T03:57:01;10.75;;;9.48;;
27269;SDS011;14769;56.934;24.176;2022-07-23T03:58:04;11.38;;;9.23;;
27269;SDS011;14769;56.934;24.176;2022-07-23T03:59:06;11.80;;;9.38;;
27269;SDS011;14769;56.934;24.176;2022-07-23T04:00:08;13.75;;;9.93;;
27269;SDS011;14769;56.934;24.176;2022-07-23T04:01:11;13.55;;;10.50;;
27269;SDS011;14769;56.934;24.176;2022-07-23T04:02:13;13.82;;;10.73;;
27269;SDS011;14769;56.934;24.176;2022-07-23T04:03:15;13.93;;;10.90;;
27269;SDS011;14769;56.934;24.176;2022-07-23T04:04:17;12.77;;;11.27;;
27269;SDS011;14769;56.934;24.176;2022-07-23T04:05:19;13.43;;;11.07;;
27269;SDS011;14769;56.934;24.176;2022-07-23T04:06:21;12.75;;;11.35;;
27269;SDS011;14769;56.934;24.176;2022-07-23T04:07:22;13.45;;;11.20;;
27269;SDS011;14769;56.934;24.176;2022-07-23T04:08:24;15.73;;;11.48;;
27269;SDS011;14769;56.934;24.176;2022-07-23T04:09:26;13.88;;;11.52;;
27269;SDS011;14769;56.934;24.176;2022-07-23T04:10:28;12.70;;;11.38;;
27269;SDS011;14769;56.934;24.176;2022-07-23T04:11:30;13.90;;;11.48;;
27269;SDS011;14769;56.934;24.176;2022-07-23T04:12:32;15.50;;;11.30;;
27269;SDS011;14769;56.934;24.176;2022-07-23T04:13:35;14.80;;;10.52;;
27269;SDS011;14769;56.934;24.176;2022-07-23T04:14:36;16.17;;;12.02;;
27269;SDS011;14769;56.934;24.176;2022-07-23T04:15:38;16.58;;;11.73;;
27269;SDS011;14769;56.934;24.176;2022-07-23T04:16:41;18.45;;;11.88;;
27269;SDS011;14769;56.934;24.176;2022-07-23T04:17:42;15.00;;;11.57;;
27269;SDS011;14769;56.934;24.176;2022-07-23T04:18:45;17.13;;;11.85;;
27269;SDS011;14769;56.934;24.176;2022-07-23T04:19:46;14.10;;;12.02;;
27269;SDS011;14769;56.934;24.176;2022-07-23T04:20:48;15.43;;;11.98;;
27269;SDS011;14769;56.934;24.176;2022-07-23T04:21:50;16.17;;;11.68;;
27269;SDS011;14769;56.934;24.176;2022-07-23T04:22:52;20.95;;;12.57;;
27269;SDS011;14769;56.934;24.176;2022-07-23T04:23:55;18.35;;;13.02;;
27269;SDS011;14769;56.934;24.176;2022-07-23T04:24:57;14.15;;;12.32;;
27269;SDS011;14769;56.934;24.176;2022-07-23T04:25:59;16.10;;;11.95;;
27269;SDS011;14769;56.934;24.176;2022-07-23T04:27:00;19.63;;;12.48;;
27269;SDS011;14769;56.934;24.176;2022-07-23T04:28:02;13.70;;;11.82;;
27269;SDS011;14769;56.934;24.176;2022-07-23T04:29:04;18.52;;;12.70;;
27269;SDS011;14769;56.934;24.176;2022-07-23T04:30:06;14.55;;;11.98;;
27269;SDS011;14769;56.934;24.176;2022-07-23T04:31:09;15.02;;;12.43;;
27269;SDS011;14769;56.934;24.176;2022-07-23T04:32:10;14.93;;;12.40;;
27269;SDS011;14769;56.934;24.176;2022-07-23T04:33:13;13.80;;;12.13;;
27269;SDS011;14769;56.934;24.176;2022-07-23T04:34:14;15.50;;;11.75;;
27269;SDS011;14769;56.934;24.176;2022-07-23T04:35:16;14.57;;;12.38;;
27269;SDS011;14769;56.934;24.176;2022-07-23T04:36:18;15.02;;;12.32;;
27269;SDS011;14769;56.934;24.176;2022-07-23T04:37:20;14.30;;;12.48;;
27269;SDS011;14769;56.934;24.176;2022-07-23T04:38:22;14.20;;;12.18;;
27269;SDS011;14769;56.934;24.176;2022-07-23T04:39:23;14.25;;;12.80;;
27269;SDS011;14769;56.934;24.176;2022-07-23T04:40:25;14.93;;;12.57;;
27269;SDS011;14769;56.934;24.176;2022-07-23T04:41:29;14.48;;;12.77;;
27269;SDS011;14769;56.934;24.176;2022-07-23T04:42:31;18.55;;;12.75;;
27269;SDS011;14769;56.934;24.176;2022-07-23T04:43:32;13.85;;;12.07;;
27269;SDS011;14769;56.934;24.176;2022-07-23T04:44:34;19.05;;;13.52;;
27269;SDS011;14769;56.934;24.176;2022-07-23T04:45:36;16.08;;;13.02;;
27269;SDS011;14769;56.934;24.176;2022-07-23T04:46:40;20.17;;;13.13;;
27269;SDS011;14769;56.934;24.176;2022-07-23T04:47:42;18.10;;;13.27;;
27269;SDS011;14769;56.934;24.176;2022-07-23T04:48:44;17.73;;;13.75;;
27269;SDS011;14769;56.934;24.176;2022-07-23T04:49:46;19.83;;;13.48;;
27269;SDS011;14769;56.934;24.176;2022-07-23T04:50:48;20.50;;;13.82;;
27269;SDS011;14769;56.934;24.176;2022-07-23T04:51:49;16.10;;;13.30;;
27269;SDS011;14769;56.934;24.176;2022-07-23T04:52:51;16.52;;;13.10;;
27269;SDS011;14769;56.934;24.176;2022-07-23T04:53:53;15.27;;;13.07;;
27269;SDS011;14769;56.934;24.176;2022-07-23T04:54:57;15.70;;;14.00;;
27269;SDS011;14769;56.934;24.176;2022-07-23T04:55:59;17.70;;;13.00;;
27269;SDS011;14769;56.934;24.176;2022-07-23T04:57:01;14.60;;;13.20;;
27269;SDS011;14769;56.934;24.176;2022-07-23T04:58:04;16.45;;;12.95;;
27269;SDS011;14769;56.934;24.176;2022-07-23T04:59:06;17.05;;;13.90;;
27269;SDS011;14769;56.934;24.176;2022-07-23T05:00:08;20.40;;;14.98;;
27269;SDS011;14769;56.934;24.176;2022-07-23T05:01:11;19.58;;;14.52;;
27269;SDS011;14769;56.934;24.176;2022-07-23T05:02:13;22.15;;;14.70;;
27269;SDS011;14769;56.934;24.176;2022-07-23T05:03:15;21.00;;;13.50;;
27269;SDS011;14769;56.934;24.176;2022-07-23T05:04:17;19.13;;;13.40;;
27269;SDS011;14769;56.934;24.176;2022-07-23T05:05:19;19.13;;;14.20;;
27269;SDS011;14769;56.934;24.176;2022-07-23T05:06:20;15.52;;;13.90;;
27269;SDS011;14769;56.934;24.176;2022-07-23T05:07:22;16.50;;;12.65;;
27269;SDS011;14769;56.934;24.176;2022-07-23T05:08:24;20.35;;;13.85;;
27269;SDS011;14769;56.934;24.176;2022-07-23T05:09:26;17.95;;;14.23;;
27269;SDS011;14769;56.934;24.176;2022-07-23T05:10:29;17.65;;;13.13;;
27269;SDS011;14769;56.934;24.176;2022-07-23T05:11:31;14.32;;;12.77;;
27269;SDS011;14769;56.934;24.176;2022-07-23T05:12:33;15.90;;;12.85;;
27269;SDS011;14769;56.934;24.176;2022-07-23T05:13:34;17.10;;;13.07;;
27269;SDS011;14769;56.934;24.176;2022-07-23T05:14:36;14.32;;;12.82;;
27269;SDS011;14769;56.934;24.176;2022-07-23T05:15:40;16.92;;;12.60;;
27269;SDS011;14769;56.934;24.176;2022-07-23T05:16:42;14.07;;;12.50;;
27269;SDS011;14769;56.934;24.176;2022-07-23T05:17:43;16.73;;;13.70;;
27269;SDS011;14769;56.934;24.176;2022-07-23T05:18:45;15.32;;;12.77;;
27269;SDS011;14769;56.934;24.176;2022-07-23T05:19:47;17.10;;;13.20;;
27269;SDS011;14769;56.934;24.176;2022-07-23T05:20:49;16.90;;;12.40;;
27269;SDS011;14769;56.934;24.176;2022-07-23T05:21:50;19.58;;;13.32;;
27269;SDS011;14769;56.934;24.176;2022-07-23T05:22:52;17.27;;;12.57;;
27269;SDS011;14769;56.934;24.176;2022-07-23T05:23:54;19.88;;;13.57;;
27269;SDS011;14769;56.934;24.176;2022-07-23T05:24:56;18.05;;;13.18;;
27269;SDS011;14769;56.934;24.176;2022-07-23T05:25:58;19.15;;;14.20;;
27269;SDS011;14769;56.934;24.176;2022-07-23T05:26:59;15.63;;;12.85;;
27269;SDS011;14769;56.934;24.176;2022-07-23T05:28:01;15.25;;;11.57;;
27269;SDS011;14769;56.934;24.176;2022-07-23T05:29:03;14.73;;;12.95;;
27269;SDS011;14769;56.934;24.176;2022-07-23T05:30:06;15.27;;;12.40;;
27269;SDS011;14769;56.934;24.176;2022-07-23T05:31:08;16.23;;;12.23;;
27269;SDS011;14769;56.934;24.176;2022-07-23T05:32:10;13.80;;;11.68;;
27269;SDS011;14769;56.934;24.176;2022-07-23T05:33:12;12.73;;;11.43;;
27269;SDS011;14769;56.934;24.176;2022-07-23T05:34:13;16.77;;;12.27;;
27269;SDS011;14769;56.934;24.176;2022-07-23T05:35:18;15.88;;;12.38;;
27269;SDS011;14769;56.934;24.176;2022-07-23T05:36:20;13.60;;;12.20;;
27269;SDS011;14769;56.934;24.176;2022-07-23T05:37:22;18.48;;;13.10;;
27269;SDS011;14769;56.934;24.176;2022-07-23T05:38:23;20.63;;;13.20;;
27269;SDS011;14769;56.934;24.176;2022-07-23T05:39:25;18.05;;;12.90;;
27269;SDS011;14769;56.934;24.176;2022-07-23T05:40:27;14.88;;;11.27;;
27269;SDS011;14769;56.934;24.176;2022-07-23T05:41:29;13.63;;;12.18;;
27269;SDS011;14769;56.934;24.176;2022-07-23T05:42:31;16.48;;;12.55;;
27269;SDS011;14769;56.934;24.176;2022-07-23T05:43:33;15.18;;;11.57;;
27269;SDS011;14769;56.934;24.176;2022-07-23T05:44:34;16.30;;;11.88;;
27269;SDS011;14769;56.934;24.176;2022-07-23T05:45:36;15.82;;;12.25;;
27269;SDS011;14769;56.934;24.176;2022-07-23T05:46:38;13.20;;;11.90;;
27269;SDS011;14769;56.934;24.176;2022-07-23T05:48:46;15.73;;;11.93;;
27269;SDS011;14769;56.934;24.176;2022-07-23T05:49:51;13.18;;;11.63;;
27269;SDS011;14769;56.934;24.176;2022-07-23T05:50:53;18.08;;;13.20;;
27269;SDS011;14769;56.934;24.176;2022-07-23T05:51:54;17.25;;;12.63;;
27269;SDS011;14769;56.934;24.176;2022-07-23T05:52:57;17.17;;;12.70;;
27269;SDS011;14769;56.934;24.176;2022-07-23T05:53:59;16.05;;;12.82;;
27269;SDS011;14769;56.934;24.176;2022-07-23T05:55:00;15.52;;;11.98;;
27269;SDS011;14769;56.934;24.176;2022-07-23T05:56:02;14.55;;;11.55;;
27269;SDS011;14769;56.934;24.176;2022-07-23T05:57:04;15.63;;;11.80;;
27269;SDS011;14769;56.934;24.176;2022-07-23T05:58:06;16.35;;;11.85;;
27269;SDS011;14769;56.934;24.176;2022-07-23T05:59:08;12.65;;;11.35;;
27269;SDS011;14769;56.934;24.176;2022-07-23T06:00:10;13.27;;;11.48;;
27269;SDS011;14769;56.934;24.176;2022-07-23T06:01:12;13.13;;;11.63;;
27269;SDS011;14769;56.934;24.176;2022-07-23T06:02:14;14.90;;;11.90;;
27269;SDS011;14769;56.934;24.176;2022-07-23T06:03:16;12.07;;;10.85;;
27269;SDS011;14769;56.934;24.176;2022-07-23T06:04:18;15.15;;;11.40;;
27269;SDS011;14769;56.934;24.176;2022-07-23T06:05:19;13.68;;;10.98;;